createdAt,value
2022-08-09T00:00:08.141Z,23.17
2022-08-09T00:01:10.693Z,23.17
2022-08-09T00:02:07.113Z,23.14
2022-08-09T00:03:10.907Z,23.13
2022-08-09T00:04:25.177Z,23.13
2022-08-09T00:06:17.819Z,23.13
2022-08-09T00:06:19.790Z,23.14
2022-08-09T00:07:10.517Z,23.14
2022-08-09T00:08:09.967Z,23.13
2022-08-09T00:09:07.773Z,23.11
2022-08-09T00:10:07.760Z,23.07
2022-08-09T00:11:24.548Z,23.03
2022-08-09T00:12:07.223Z,22.98
2022-08-09T00:13:17.028Z,22.97
2022-08-09T00:14:06.963Z,22.94
2022-08-09T00:15:07.411Z,22.91
2022-08-09T00:16:07.119Z,22.90
2022-08-09T00:17:07.394Z,22.88
2022-08-09T00:18:11.521Z,22.85
2022-08-09T00:19:09.523Z,22.82
2022-08-09T00:20:07.439Z,22.79
2022-08-09T00:21:07.799Z,22.79
2022-08-09T00:22:06.959Z,22.76
2022-08-09T00:23:53.890Z,22.74
2022-08-09T00:24:07.197Z,22.75
2022-08-09T00:25:10.036Z,22.75
2022-08-09T00:26:07.512Z,22.75
2022-08-09T00:27:07.597Z,22.76
2022-08-09T00:28:07.975Z,22.76
2022-08-09T00:29:12.585Z,22.76
2022-08-09T00:30:24.543Z,22.78
2022-08-09T00:31:09.374Z,22.79
2022-08-09T00:33:07.166Z,22.79
2022-08-09T00:34:06.969Z,22.78
2022-08-09T00:35:07.301Z,22.77
2022-08-09T00:36:07.474Z,22.77
2022-08-09T00:37:07.173Z,22.76
2022-08-09T00:38:07.306Z,22.75
2022-08-09T00:39:17.092Z,22.71
2022-08-09T00:40:13.663Z,22.71
2022-08-09T00:41:08.287Z,22.71
2022-08-09T00:44:11.447Z,22.66
2022-08-09T00:44:14.162Z,22.67
2022-08-09T00:44:15.598Z,22.68
2022-08-09T00:45:16.075Z,22.66
2022-08-09T00:46:07.452Z,22.65
2022-08-09T00:47:07.293Z,22.65
2022-08-09T00:48:07.225Z,22.64
2022-08-09T00:49:07.094Z,22.64
2022-08-09T00:50:07.037Z,22.60
2022-08-09T00:51:11.767Z,22.56
2022-08-09T00:52:17.305Z,22.53
2022-08-09T00:53:10.435Z,22.50
2022-08-09T00:54:07.165Z,22.50
2022-08-09T00:55:07.550Z,22.48
2022-08-09T00:56:09.991Z,22.49
2022-08-09T00:57:10.648Z,22.5
2022-08-09T00:58:07.590Z,22.48
2022-08-09T00:59:07.160Z,22.47
2022-08-09T01:00:21.279Z,22.47
2022-08-09T01:01:06.986Z,22.45
2022-08-09T01:02:06.891Z,22.42
2022-08-09T01:03:07.585Z,22.40
2022-08-09T01:04:07.759Z,22.39
2022-08-09T01:05:14.302Z,22.38
2022-08-09T01:06:17.966Z,22.38
2022-08-09T01:07:07.270Z,22.38
2022-08-09T01:08:07.204Z,22.38
2022-08-09T01:09:07.088Z,22.34
2022-08-09T01:10:07.297Z,22.33
2022-08-09T01:11:08.547Z,22.29
2022-08-09T01:12:06.900Z,22.27
2022-08-09T01:13:07.538Z,22.24
2022-08-09T01:14:07.310Z,22.23
2022-08-09T01:15:16.648Z,22.24
2022-08-09T01:16:07.105Z,22.23
2022-08-09T01:17:08.980Z,22.22
2022-08-09T01:18:08.459Z,22.23
2022-08-09T01:19:07.130Z,22.21
2022-08-09T01:20:06.930Z,22.21
2022-08-09T01:21:06.900Z,22.17
2022-08-09T01:22:07.368Z,22.17
2022-08-09T01:24:00.762Z,22.16
2022-08-09T01:24:08.469Z,22.16
2022-08-09T01:25:06.759Z,22.18
2022-08-09T01:26:07.445Z,22.17
2022-08-09T01:27:07.843Z,22.16
2022-08-09T01:28:06.876Z,22.18
2022-08-09T01:29:07.041Z,22.14
2022-08-09T01:30:08.303Z,22.16
2022-08-09T01:31:07.061Z,22.17
2022-08-09T01:32:29.868Z,22.12
2022-08-09T01:33:07.047Z,22.08
2022-08-09T01:34:08.933Z,22.05
2022-08-09T01:35:29.094Z,22.01
2022-08-09T01:36:07.519Z,21.99
2022-08-09T01:37:07.413Z,21.98
2022-08-09T01:38:09.800Z,21.98
2022-08-09T01:39:07.544Z,21.97
2022-08-09T01:40:07.188Z,21.96
2022-08-09T01:41:06.986Z,22
2022-08-09T01:42:11.292Z,22
2022-08-09T01:43:07.186Z,21.96
2022-08-09T01:44:07.251Z,21.91
2022-08-09T01:45:07.536Z,21.85
2022-08-09T01:46:07.267Z,21.81
2022-08-09T01:47:07.460Z,21.74
2022-08-09T01:48:07.611Z,21.70
2022-08-09T01:49:10.721Z,21.61
2022-08-09T01:50:07.820Z,21.58
2022-08-09T01:51:07.549Z,21.54
2022-08-09T01:52:07.899Z,21.52
2022-08-09T01:53:19.549Z,21.50
2022-08-09T01:54:07.142Z,21.48
2022-08-09T01:55:07.246Z,21.48
2022-08-09T01:56:07.539Z,21.50
2022-08-09T01:57:08.114Z,21.54
2022-08-09T01:58:07.673Z,21.54
2022-08-09T01:59:07.467Z,21.55
2022-08-09T02:00:34.241Z,21.54
2022-08-09T02:01:08.006Z,21.50
2022-08-09T02:02:07.636Z,21.5
2022-08-09T02:03:07.462Z,21.48
2022-08-09T02:04:08.564Z,21.47
2022-08-09T02:05:15.417Z,21.45
2022-08-09T02:06:07.170Z,21.44
2022-08-09T02:07:07.166Z,21.42
2022-08-09T02:08:38.629Z,21.40
2022-08-09T02:09:07.453Z,21.38
2022-08-09T02:10:07.483Z,21.36
2022-08-09T02:11:16.609Z,21.34
2022-08-09T02:12:07.322Z,21.33
2022-08-09T02:13:07.307Z,21.35
2022-08-09T02:14:07.970Z,21.35
2022-08-09T02:15:21.736Z,21.33
2022-08-09T02:16:06.981Z,21.34
2022-08-09T02:17:59.399Z,21.33
2022-08-09T02:18:10.242Z,21.30
2022-08-09T02:19:07.118Z,21.31
2022-08-09T02:20:07.377Z,21.29
2022-08-09T02:21:07.485Z,21.23
2022-08-09T02:22:07.114Z,21.21
2022-08-09T02:23:07.010Z,21.20
2022-08-09T02:24:07.181Z,21.19
2022-08-09T02:25:07.338Z,21.18
2022-08-09T02:26:07.142Z,21.19
2022-08-09T02:27:07.219Z,21.17
2022-08-09T02:28:09.541Z,21.17
2022-08-09T02:29:07.066Z,21.19
2022-08-09T02:30:07.615Z,21.20
2022-08-09T02:31:06.906Z,21.18
2022-08-09T02:32:07.590Z,21.20
2022-08-09T02:33:07.969Z,21.22
2022-08-09T02:34:13.578Z,21.21
2022-08-09T02:35:17.170Z,21.20
2022-08-09T02:36:07.598Z,21.19
2022-08-09T02:37:07.292Z,21.20
2022-08-09T02:38:07.166Z,21.19
2022-08-09T02:39:40.066Z,21.17
2022-08-09T02:40:10.288Z,21.18
2022-08-09T02:41:07.699Z,21.17
2022-08-09T02:42:06.988Z,21.17
2022-08-09T02:43:07.098Z,21.17
2022-08-09T02:44:13.690Z,21.17
2022-08-09T02:45:07.189Z,21.15
2022-08-09T02:46:06.943Z,21.15
2022-08-09T02:47:07.485Z,21.14
2022-08-09T02:48:19.432Z,21.12
2022-08-09T02:49:06.855Z,21.11
2022-08-09T02:50:07.286Z,21.11
2022-08-09T02:51:07.842Z,21.07
2022-08-09T02:52:07.851Z,21.05
2022-08-09T02:53:07.074Z,21.00
2022-08-09T02:54:07.271Z,21.01
2022-08-09T02:55:19.925Z,21
2022-08-09T02:56:07.314Z,20.99
2022-08-09T02:57:14.099Z,20.99
2022-08-09T02:58:37.105Z,21.00
2022-08-09T02:59:07.923Z,20.99
2022-08-09T03:00:25.307Z,21.01
2022-08-09T03:01:08.344Z,21.01
2022-08-09T03:02:08.156Z,21.02
2022-08-09T03:03:07.291Z,21.02
2022-08-09T03:04:18.165Z,21.03
2022-08-09T03:05:08.057Z,21.02
2022-08-09T03:06:06.916Z,21.01
2022-08-09T03:07:12.329Z,21.02
2022-08-09T03:08:07.099Z,20.98
2022-08-09T03:09:07.737Z,20.96
2022-08-09T03:10:07.570Z,20.94
2022-08-09T03:11:07.128Z,20.94
2022-08-09T03:12:11.259Z,20.93
2022-08-09T03:13:08.557Z,20.89
2022-08-09T03:14:07.680Z,20.89
2022-08-09T03:15:07.675Z,20.89
2022-08-09T03:16:07.581Z,20.86
2022-08-09T03:17:07.669Z,20.86
2022-08-09T03:18:10.687Z,20.85
2022-08-09T03:19:16.569Z,20.83
2022-08-09T03:20:11.248Z,20.83
2022-08-09T03:21:07.144Z,20.83
2022-08-09T03:22:12.355Z,20.82
2022-08-09T03:23:14.664Z,20.82
2022-08-09T03:24:10.087Z,20.82
2022-08-09T03:25:25.849Z,20.85
2022-08-09T03:26:07.291Z,20.84
2022-08-09T03:27:07.285Z,20.83
2022-08-09T03:28:11.314Z,20.85
2022-08-09T03:29:09.721Z,20.85
2022-08-09T03:30:07.996Z,20.84
2022-08-09T03:31:10.073Z,20.83
2022-08-09T03:32:07.289Z,20.82
2022-08-09T03:33:18.531Z,20.79
2022-08-09T03:34:07.619Z,20.80
2022-08-09T03:35:24.205Z,20.79
2022-08-09T03:36:12.706Z,20.81
2022-08-09T03:37:10.749Z,20.79
2022-08-09T03:38:06.453Z,20.78
2022-08-09T03:39:07.411Z,20.79
2022-08-09T03:40:07.904Z,20.78
2022-08-09T03:41:07.159Z,20.78
2022-08-09T03:42:07.200Z,20.75
2022-08-09T03:43:07.351Z,20.75
2022-08-09T03:44:08.728Z,20.73
2022-08-09T03:45:07.544Z,20.71
2022-08-09T03:46:19.952Z,20.69
2022-08-09T03:47:07.147Z,20.66
2022-08-09T03:48:07.109Z,20.62
2022-08-09T03:49:07.768Z,20.59
2022-08-09T03:50:07.616Z,20.55
2022-08-09T03:51:07.295Z,20.53
2022-08-09T03:52:06.217Z,20.51
2022-08-09T03:53:07.305Z,20.47
2022-08-09T03:54:10.937Z,20.44
2022-08-09T03:55:09.807Z,20.42
2022-08-09T03:56:07.036Z,20.39
2022-08-09T03:57:18.389Z,20.36
2022-08-09T03:58:16.592Z,20.35
2022-08-09T03:59:07.195Z,20.33
2022-08-09T04:00:08.312Z,20.29
2022-08-09T04:01:07.210Z,20.28
2022-08-09T04:02:07.658Z,20.26
2022-08-09T04:03:07.326Z,20.21
2022-08-09T04:04:10.098Z,20.18
2022-08-09T04:05:13.891Z,20.16
2022-08-09T04:06:07.046Z,20.11
2022-08-09T04:07:07.456Z,20.10
2022-08-09T04:08:07.343Z,20.05
2022-08-09T04:09:15.108Z,20.03
2022-08-09T04:10:07.350Z,20
2022-08-09T04:11:11.147Z,19.96
2022-08-09T04:12:07.440Z,19.93
2022-08-09T04:13:07.197Z,19.91
2022-08-09T04:14:53.085Z,19.92
2022-08-09T04:15:11.339Z,19.86
2022-08-09T04:16:20.673Z,19.86
2022-08-09T04:17:07.365Z,19.83
2022-08-09T04:18:07.341Z,19.80
2022-08-09T04:19:10.997Z,19.80
2022-08-09T04:20:07.424Z,19.80
2022-08-09T04:21:07.308Z,19.75
2022-08-09T04:22:12.212Z,19.77
2022-08-09T04:23:09.782Z,19.76
2022-08-09T04:24:12.087Z,19.78
2022-08-09T04:25:07.482Z,19.78
2022-08-09T04:26:06.973Z,19.78
2022-08-09T04:27:07.233Z,19.79
2022-08-09T04:28:07.525Z,19.79
2022-08-09T04:29:13.389Z,19.78
2022-08-09T04:30:07.183Z,19.77
2022-08-09T04:31:09.221Z,19.76
2022-08-09T04:32:07.508Z,19.79
2022-08-09T04:33:07.851Z,19.79
2022-08-09T04:34:07.261Z,19.78
2022-08-09T04:35:08.728Z,19.77
2022-08-09T04:36:07.145Z,19.78
2022-08-09T04:37:07.103Z,19.78
2022-08-09T04:38:06.973Z,19.81
2022-08-09T04:39:07.590Z,19.82
2022-08-09T04:40:07.091Z,19.84
2022-08-09T04:41:11.895Z,19.88
2022-08-09T04:42:09.293Z,19.89
2022-08-09T04:43:07.831Z,19.90
2022-08-09T04:44:10.300Z,19.89
2022-08-09T04:45:07.336Z,19.91
2022-08-09T04:46:07.435Z,19.90
2022-08-09T04:47:07.572Z,19.92
2022-08-09T04:48:10.588Z,19.90
2022-08-09T04:49:06.997Z,19.89
2022-08-09T04:50:07.493Z,19.89
2022-08-09T04:51:06.938Z,19.91
2022-08-09T04:52:07.481Z,19.92
2022-08-09T04:53:13.443Z,19.90
2022-08-09T04:54:07.131Z,19.92
2022-08-09T04:55:12.309Z,19.90
2022-08-09T04:56:07.418Z,19.92
2022-08-09T04:57:10.023Z,19.90
2022-08-09T04:58:09.721Z,19.90
2022-08-09T04:59:15.542Z,19.90
2022-08-09T05:00:08.179Z,19.91
2022-08-09T05:01:16.499Z,19.87
2022-08-09T05:02:07.583Z,19.88
2022-08-09T05:03:12.736Z,19.87
2022-08-09T05:04:07.097Z,19.88
2022-08-09T05:05:10.026Z,19.89
2022-08-09T05:06:07.645Z,19.87
2022-08-09T05:07:07.295Z,19.88
2022-08-09T05:08:07.348Z,19.89
2022-08-09T05:09:07.395Z,19.88
2022-08-09T05:10:07.032Z,19.91
2022-08-09T05:11:07.812Z,19.93
2022-08-09T05:12:07.059Z,19.96
2022-08-09T05:13:07.459Z,19.97
2022-08-09T05:14:07.419Z,20.01
2022-08-09T05:15:11.796Z,20.01
2022-08-09T05:16:07.396Z,20.05
2022-08-09T05:18:36.835Z,20.08
2022-08-09T05:18:38.521Z,20.12
2022-08-09T05:19:07.672Z,20.15
2022-08-09T05:20:07.066Z,20.16
2022-08-09T05:21:13.448Z,20.20
2022-08-09T05:23:55.166Z,20.26
2022-08-09T05:24:08.269Z,20.24
2022-08-09T05:25:07.431Z,20.26
2022-08-09T05:26:07.114Z,20.29
2022-08-09T05:27:06.959Z,20.29
2022-08-09T05:28:06.960Z,20.30
2022-08-09T05:29:07.003Z,20.35
2022-08-09T05:30:07.324Z,20.39
2022-08-09T05:31:09.432Z,20.42
2022-08-09T05:32:07.056Z,20.46
2022-08-09T05:33:09.374Z,20.49
2022-08-09T05:34:07.065Z,20.52
2022-08-09T05:35:07.784Z,20.54
2022-08-09T05:36:07.222Z,20.59
2022-08-09T05:37:07.436Z,20.62
2022-08-09T05:38:07.507Z,20.64
2022-08-09T05:39:07.464Z,20.67
2022-08-09T05:40:07.680Z,20.73
2022-08-09T05:41:12.686Z,20.77
2022-08-09T05:42:07.829Z,20.82
2022-08-09T05:43:07.169Z,20.85
2022-08-09T05:44:07.702Z,20.91
2022-08-09T05:45:07.717Z,20.94
2022-08-09T05:46:07.678Z,20.96
2022-08-09T05:47:07.189Z,20.99
2022-08-09T05:48:07.088Z,21.01
2022-08-09T05:49:07.465Z,21.02
2022-08-09T05:50:24.088Z,21.04
2022-08-09T05:51:29.960Z,21.06
2022-08-09T05:52:07.482Z,21.07
2022-08-09T05:53:11.745Z,21.04
2022-08-09T05:54:07.061Z,21.02
2022-08-09T05:55:08.744Z,21.02
2022-08-09T05:56:07.725Z,21.03
2022-08-09T05:57:06.930Z,21.06
2022-08-09T05:58:07.350Z,21.09
2022-08-09T05:59:07.170Z,21.13
2022-08-09T06:00:07.728Z,21.15
2022-08-09T06:01:07.858Z,21.17
2022-08-09T06:02:07.489Z,21.18
2022-08-09T06:03:10.683Z,21.20
2022-08-09T06:04:07.269Z,21.21
2022-08-09T06:05:07.205Z,21.18
2022-08-09T06:06:07.577Z,21.18
2022-08-09T06:07:07.700Z,21.17
2022-08-09T06:08:09.041Z,21.15
2022-08-09T06:09:10.018Z,21.18
2022-08-09T06:10:07.415Z,21.21
2022-08-09T06:11:16.441Z,21.25
2022-08-09T06:12:07.974Z,21.28
2022-08-09T06:13:12.406Z,21.36
2022-08-09T06:14:07.103Z,21.39
2022-08-09T06:15:10.114Z,21.43
2022-08-09T06:16:06.995Z,21.49
2022-08-09T06:17:09.400Z,21.55
2022-08-09T06:18:07.261Z,21.64
2022-08-09T06:19:07.484Z,21.70
2022-08-09T06:20:07.553Z,21.78
2022-08-09T06:21:07.129Z,21.81
2022-08-09T06:22:06.954Z,21.86
2022-08-09T06:23:07.168Z,21.88
2022-08-09T06:24:07.254Z,21.89
2022-08-09T06:25:08.663Z,21.94
2022-08-09T06:26:07.356Z,21.96
2022-08-09T06:27:07.145Z,22.01
2022-08-09T06:28:07.086Z,22.05
2022-08-09T06:29:07.629Z,22.06
2022-08-09T06:30:09.822Z,22.08
2022-08-09T06:31:06.922Z,22.14
2022-08-09T06:32:08.751Z,22.17
2022-08-09T06:33:30.232Z,22.16
2022-08-09T06:34:06.865Z,22.20
2022-08-09T06:35:07.402Z,22.19
2022-08-09T06:36:07.396Z,22.20
2022-08-09T06:37:10.116Z,22.21
2022-08-09T06:38:07.224Z,22.25
2022-08-09T06:39:09.245Z,22.28
2022-08-09T06:40:21.926Z,22.31
2022-08-09T06:41:12.430Z,22.34
2022-08-09T06:42:08.625Z,22.39
2022-08-09T06:43:12.298Z,22.43
2022-08-09T06:44:07.193Z,22.46
2022-08-09T06:46:04.902Z,22.46
2022-08-09T06:46:11.102Z,22.50
2022-08-09T06:47:08.463Z,22.55
2022-08-09T06:48:07.077Z,22.52
2022-08-09T06:49:07.333Z,22.54
2022-08-09T06:50:13.921Z,22.54
2022-08-09T06:51:07.043Z,22.53
2022-08-09T06:52:07.805Z,22.52
2022-08-09T06:53:07.058Z,22.51
2022-08-09T06:54:09.184Z,22.51
2022-08-09T06:55:15.237Z,22.48
2022-08-09T06:56:07.234Z,22.5
2022-08-09T06:57:15.333Z,22.51
2022-08-09T06:58:07.767Z,22.51
2022-08-09T07:00:49.911Z,22.56
2022-08-09T07:00:53.931Z,22.62
2022-08-09T07:01:08.816Z,22.68
2022-08-09T07:02:07.295Z,22.78
2022-08-09T07:03:07.537Z,22.84
2022-08-09T07:04:06.982Z,22.89
2022-08-09T07:05:07.347Z,22.91
2022-08-09T07:06:07.505Z,22.93
2022-08-09T07:07:07.349Z,22.95
2022-08-09T07:08:06.922Z,23.01
2022-08-09T07:09:07.296Z,23.14
2022-08-09T07:10:24.071Z,23.22
2022-08-09T07:11:07.211Z,23.27
2022-08-09T07:12:07.826Z,23.33
2022-08-09T07:13:27.396Z,23.35
2022-08-09T07:14:07.381Z,23.42
2022-08-09T07:16:38.628Z,23.42
2022-08-09T07:16:41.868Z,23.43
2022-08-09T07:17:08.113Z,23.47
2022-08-09T07:18:07.101Z,23.47
2022-08-09T07:19:07.796Z,23.51
2022-08-09T07:20:08.173Z,23.51
2022-08-09T07:21:07.758Z,23.54
2022-08-09T07:22:07.111Z,23.56
2022-08-09T07:23:19.118Z,23.63
2022-08-09T07:24:07.379Z,23.67
2022-08-09T07:25:09.702Z,23.70
2022-08-09T07:26:07.350Z,23.75
2022-08-09T07:27:15.486Z,23.79
2022-08-09T07:28:07.195Z,23.76
2022-08-09T07:29:12.203Z,23.74
2022-08-09T07:30:07.698Z,23.75
2022-08-09T07:31:07.504Z,23.78
2022-08-09T07:32:07.783Z,23.88
2022-08-09T07:33:12.256Z,23.98
2022-08-09T07:34:07.297Z,24.04
2022-08-09T07:35:08.035Z,24.09
2022-08-09T07:36:07.572Z,24.12
2022-08-09T07:37:10.939Z,24.19
2022-08-09T07:38:07.091Z,24.21
2022-08-09T07:39:11.621Z,24.26
2022-08-09T07:40:07.871Z,24.29
2022-08-09T07:41:12.117Z,24.35
2022-08-09T07:42:07.114Z,24.38
2022-08-09T07:43:16.558Z,24.43
2022-08-09T07:44:07.144Z,24.46
2022-08-09T07:45:22.674Z,24.45
2022-08-09T07:46:07.145Z,24.45
2022-08-09T07:47:07.884Z,24.47
2022-08-09T07:48:07.296Z,24.44
2022-08-09T07:49:08.300Z,24.45
2022-08-09T07:50:08.680Z,24.48
2022-08-09T07:52:02.819Z,24.48
2022-08-09T07:52:17.751Z,24.49
2022-08-09T07:53:07.204Z,24.60
2022-08-09T07:54:08.705Z,24.70
2022-08-09T07:55:09.519Z,24.77
2022-08-09T07:56:07.566Z,24.80
2022-08-09T07:57:11.591Z,24.85
2022-08-09T07:58:13.346Z,24.96
2022-08-09T07:59:12.522Z,25.12
2022-08-09T08:00:08.967Z,25.23
2022-08-09T08:02:07.338Z,25.28
2022-08-09T08:03:08.368Z,25.32
2022-08-09T08:04:10.256Z,25.32
2022-08-09T08:05:17.922Z,25.29
2022-08-09T08:06:07.241Z,25.33
2022-08-09T08:07:14.882Z,25.33
2022-08-09T08:09:02.414Z,25.36
2022-08-09T08:09:36.456Z,25.38
2022-08-09T08:10:08.986Z,25.43
2022-08-09T08:12:24.828Z,25.45
2022-08-09T08:12:24.993Z,25.45
2022-08-09T08:13:10.336Z,25.42
2022-08-09T08:14:07.593Z,25.40
2022-08-09T08:15:07.861Z,25.41
2022-08-09T08:16:07.152Z,25.42
2022-08-09T08:17:08.913Z,25.42
2022-08-09T08:18:07.028Z,25.42
2022-08-09T08:19:07.109Z,25.39
2022-08-09T08:20:12.911Z,25.44
2022-08-09T08:21:07.355Z,25.46
2022-08-09T08:22:08.138Z,25.51
2022-08-09T08:23:16.777Z,25.55
2022-08-09T08:24:11.749Z,25.60
2022-08-09T08:25:09.299Z,25.63
2022-08-09T08:26:11.586Z,25.70
2022-08-09T08:27:16.899Z,25.73
2022-08-09T08:28:07.112Z,25.77
2022-08-09T08:29:07.423Z,25.77
2022-08-09T08:30:08.003Z,25.72
2022-08-09T08:31:13.947Z,25.66
2022-08-09T08:32:07.286Z,25.65
2022-08-09T08:33:07.299Z,25.64
2022-08-09T08:34:07.327Z,25.64
2022-08-09T08:35:07.177Z,25.67
2022-08-09T08:36:07.107Z,25.71
2022-08-09T08:37:07.349Z,25.71
2022-08-09T08:38:11.833Z,25.70
2022-08-09T08:39:08.583Z,25.68
2022-08-09T08:40:07.878Z,25.64
2022-08-09T08:41:07.741Z,25.67
2022-08-09T08:42:07.428Z,25.74
2022-08-09T08:43:13.346Z,25.80
2022-08-09T08:44:07.236Z,25.82
2022-08-09T08:45:11.949Z,25.86
2022-08-09T08:46:32.042Z,25.87
2022-08-09T08:47:12.223Z,25.85
2022-08-09T08:48:10.158Z,25.82
2022-08-09T08:49:07.377Z,25.80
2022-08-09T08:50:07.305Z,25.82
2022-08-09T08:51:07.287Z,25.87
2022-08-09T08:52:10.033Z,25.94
2022-08-09T08:53:11.974Z,26.00
2022-08-09T08:54:07.111Z,26.03
2022-08-09T08:55:06.957Z,26.02
2022-08-09T08:56:07.347Z,25.99
2022-08-09T08:57:11.365Z,25.95
2022-08-09T08:58:07.139Z,25.94
2022-08-09T08:59:18.823Z,25.93
2022-08-09T09:00:12.877Z,25.88
2022-08-09T09:01:09.006Z,25.88
2022-08-09T09:02:07.805Z,25.85
2022-08-09T09:03:11.215Z,25.87
2022-08-09T09:04:07.090Z,25.93
2022-08-09T09:05:11.930Z,26.01
2022-08-09T09:06:07.360Z,26.10
2022-08-09T09:07:07.941Z,26.15
2022-08-09T09:08:07.238Z,26.17
2022-08-09T09:09:20.799Z,26.20
2022-08-09T09:10:12.065Z,26.20
2022-08-09T09:11:07.198Z,26.31
2022-08-09T09:12:12.053Z,26.32
2022-08-09T09:13:09.508Z,26.33
2022-08-09T09:14:07.209Z,26.32
2022-08-09T09:15:07.655Z,26.29
2022-08-09T09:16:07.070Z,26.30
2022-08-09T09:17:07.285Z,26.36
2022-08-09T09:18:07.349Z,26.39
2022-08-09T09:19:39.861Z,26.36
2022-08-09T09:20:07.766Z,26.39
2022-08-09T09:21:07.235Z,26.43
2022-08-09T09:22:11.214Z,26.44
2022-08-09T09:23:07.121Z,26.45
2022-08-09T09:24:10.579Z,26.47
2022-08-09T09:26:00.373Z,26.44
2022-08-09T09:26:12.252Z,26.42
2022-08-09T09:27:07.116Z,26.43
2022-08-09T09:28:10.674Z,26.43
2022-08-09T09:29:11.367Z,26.47
2022-08-09T09:30:14.203Z,26.54
2022-08-09T09:31:07.469Z,26.61
2022-08-09T09:32:16.475Z,26.62
2022-08-09T09:33:16.820Z,26.65
2022-08-09T09:34:07.639Z,26.69
2022-08-09T09:35:09.314Z,26.69
2022-08-09T09:36:19.891Z,26.71
2022-08-09T09:37:06.982Z,26.76
2022-08-09T09:38:07.450Z,26.78
2022-08-09T09:39:07.931Z,26.78
2022-08-09T09:40:07.623Z,26.80
2022-08-09T09:41:07.268Z,26.82
2022-08-09T09:42:10.810Z,26.85
2022-08-09T09:43:07.374Z,26.85
2022-08-09T09:44:10.833Z,26.88
2022-08-09T09:45:08.400Z,26.91
2022-08-09T09:47:07.713Z,27
2022-08-09T09:48:08.457Z,27.03
2022-08-09T09:49:06.870Z,27.06
2022-08-09T09:50:15.334Z,27.14
2022-08-09T09:51:07.163Z,27.16
2022-08-09T09:52:07.318Z,27.24
2022-08-09T09:53:09.004Z,27.30
2022-08-09T09:54:17.874Z,27.28
2022-08-09T09:55:16.084Z,27.23
2022-08-09T09:56:07.250Z,27.23
2022-08-09T09:58:01.634Z,27.28
2022-08-09T09:58:18.335Z,27.30
2022-08-09T09:59:07.224Z,27.35
2022-08-09T10:00:07.936Z,27.36
2022-08-09T10:01:30.293Z,27.37
2022-08-09T10:02:07.241Z,27.40
2022-08-09T10:03:09.158Z,27.46
2022-08-09T10:04:09.714Z,27.62
2022-08-09T10:05:07.279Z,27.61
2022-08-09T10:06:07.399Z,27.60
2022-08-09T10:07:10.072Z,27.60
2022-08-09T10:08:26.966Z,27.61
2022-08-09T10:09:21.497Z,27.69
2022-08-09T10:10:07.232Z,27.66
2022-08-09T10:11:52.633Z,27.68
2022-08-09T10:12:14.817Z,27.72
2022-08-09T10:13:07.553Z,27.74
2022-08-09T10:14:07.449Z,27.82
2022-08-09T10:15:07.743Z,27.88
2022-08-09T10:16:55.781Z,27.93
2022-08-09T10:17:39.208Z,28.04
2022-08-09T10:18:07.898Z,28.13
2022-08-09T10:19:07.285Z,28.13
2022-08-09T10:20:10.869Z,28.17
2022-08-09T10:21:07.052Z,28.22
2022-08-09T10:22:07.113Z,28.29
2022-08-09T10:23:07.052Z,28.38
2022-08-09T10:24:07.354Z,28.44
2022-08-09T10:25:11.763Z,28.49
2022-08-09T10:26:10.689Z,28.50
2022-08-09T10:27:10.278Z,28.51
2022-08-09T10:28:07.297Z,28.54
2022-08-09T10:29:21.353Z,28.60
2022-08-09T10:30:34.162Z,28.68
2022-08-09T10:32:39.000Z,28.85
2022-08-09T10:33:08.063Z,28.93
2022-08-09T10:34:11.424Z,29.01
2022-08-09T10:35:07.826Z,29.06
2022-08-09T10:36:11.470Z,29.11
2022-08-09T10:37:09.648Z,29.05
2022-08-09T10:38:07.591Z,28.97
2022-08-09T10:39:13.843Z,28.92
2022-08-09T10:40:08.418Z,28.92
2022-08-09T10:41:07.530Z,28.94
2022-08-09T10:43:08.919Z,29.00
2022-08-09T10:44:07.600Z,29.05
2022-08-09T10:45:11.886Z,29.06
2022-08-09T10:46:07.114Z,29.04
2022-08-09T10:47:20.299Z,28.97
2022-08-09T10:48:13.154Z,28.93
2022-08-09T10:49:07.152Z,28.96
2022-08-09T10:50:07.118Z,28.99
2022-08-09T10:51:07.334Z,28.90
2022-08-09T10:52:07.426Z,28.84
2022-08-09T10:53:10.656Z,28.79
2022-08-09T10:54:12.291Z,28.81
2022-08-09T10:55:07.401Z,28.85
2022-08-09T10:56:07.117Z,28.93
2022-08-09T10:57:07.237Z,29.07
2022-08-09T10:58:07.229Z,29.14
2022-08-09T10:59:07.290Z,29.25
2022-08-09T11:00:07.917Z,29.22
2022-08-09T11:03:03.128Z,29.21
2022-08-09T11:03:15.364Z,29.21
2022-08-09T11:03:18.600Z,29.25
2022-08-09T11:04:07.894Z,29.27
2022-08-09T11:05:07.663Z,29.29
2022-08-09T11:06:07.511Z,29.31
2022-08-09T11:07:07.314Z,29.32
2022-08-09T11:08:07.221Z,29.35
2022-08-09T11:09:16.186Z,29.35
2022-08-09T11:10:07.687Z,29.37
2022-08-09T11:11:08.915Z,29.44
2022-08-09T11:12:07.646Z,29.56
2022-08-09T11:13:07.579Z,29.71
2022-08-09T11:14:07.272Z,29.67
2022-08-09T11:15:07.692Z,29.66
2022-08-09T11:16:07.118Z,29.70
2022-08-09T11:17:07.690Z,29.76
2022-08-09T11:18:07.795Z,29.78
2022-08-09T11:19:07.904Z,29.77
2022-08-09T11:20:10.796Z,29.77
2022-08-09T11:21:07.345Z,29.82
2022-08-09T11:22:18.498Z,29.87
2022-08-09T11:23:10.409Z,29.95
2022-08-09T11:24:07.591Z,30.04
2022-08-09T11:25:08.861Z,30.13
2022-08-09T11:26:07.217Z,30.10
2022-08-09T11:27:07.521Z,30.10
2022-08-09T11:28:27.955Z,30.14
2022-08-09T11:29:07.363Z,30.11
2022-08-09T11:30:32.106Z,30.05
2022-08-09T11:31:07.451Z,30.14
2022-08-09T11:32:07.032Z,30.20
2022-08-09T11:33:07.240Z,30.16
2022-08-09T11:34:07.148Z,30.08
2022-08-09T11:35:07.847Z,30.08
2022-08-09T11:36:07.366Z,30.12
2022-08-09T11:37:07.779Z,30.16
2022-08-09T11:38:07.479Z,30.21
2022-08-09T11:39:07.675Z,30.25
2022-08-09T11:40:08.191Z,30.28
2022-08-09T11:41:06.962Z,30.31
2022-08-09T11:42:07.387Z,30.35
2022-08-09T11:43:07.292Z,30.36
2022-08-09T11:44:07.662Z,30.37
2022-08-09T11:45:07.364Z,30.40
2022-08-09T11:46:07.647Z,30.45
2022-08-09T11:47:10.933Z,30.55
2022-08-09T11:48:17.430Z,30.59
2022-08-09T11:49:07.200Z,30.67
2022-08-09T11:50:56.091Z,30.71
2022-08-09T11:52:49.584Z,30.73
2022-08-09T11:53:02.044Z,30.68
2022-08-09T11:53:57.900Z,30.69
2022-08-09T11:54:13.452Z,30.70
2022-08-09T11:55:07.189Z,30.73
2022-08-09T11:56:07.833Z,30.74
2022-08-09T11:57:07.428Z,30.77
2022-08-09T11:58:08.101Z,30.81
2022-08-09T11:59:07.462Z,30.82
2022-08-09T12:00:12.847Z,30.80
2022-08-09T12:01:08.659Z,30.79
2022-08-09T12:02:17.229Z,30.77
2022-08-09T12:03:50.330Z,30.81
2022-08-09T12:04:06.751Z,30.87
2022-08-09T12:05:07.740Z,30.92
2022-08-09T12:06:07.418Z,31.00
2022-08-09T12:07:08.180Z,31.07
2022-08-09T12:08:07.563Z,31.11
2022-08-09T12:09:15.272Z,31.15
2022-08-09T12:10:07.234Z,31.18
2022-08-09T12:11:12.773Z,31.24
2022-08-09T12:12:12.871Z,31.31
2022-08-09T12:14:07.538Z,31.48
2022-08-09T12:14:36.707Z,31.51
2022-08-09T12:15:09.118Z,31.48
2022-08-09T12:16:07.074Z,31.56
2022-08-09T12:17:34.008Z,31.63
2022-08-09T12:18:07.333Z,31.60
2022-08-09T12:19:07.242Z,31.51
2022-08-09T12:20:07.466Z,31.5
2022-08-09T12:21:26.392Z,31.5
2022-08-09T12:22:07.036Z,31.47
2022-08-09T12:23:58.055Z,31.45
2022-08-09T12:24:09.780Z,31.49
2022-08-09T12:25:07.745Z,31.57
2022-08-09T12:26:07.262Z,31.65
2022-08-09T12:29:09.879Z,31.70
2022-08-09T12:29:10.731Z,31.68
2022-08-09T12:29:33.444Z,31.72
2022-08-09T12:30:36.702Z,31.76
2022-08-09T12:31:11.125Z,31.75
2022-08-09T12:32:07.260Z,31.77
2022-08-09T12:33:07.789Z,31.78
2022-08-09T12:34:07.533Z,31.78
2022-08-09T12:35:12.585Z,31.76
2022-08-09T12:36:27.328Z,31.71
2022-08-09T12:37:21.853Z,31.70
2022-08-09T12:38:07.852Z,31.72
2022-08-09T12:39:07.600Z,31.73
2022-08-09T12:40:08.007Z,31.79
2022-08-09T12:41:07.415Z,31.86
2022-08-09T12:42:07.125Z,31.93
2022-08-09T12:43:07.386Z,31.97
2022-08-09T12:44:10.334Z,32.06
2022-08-09T12:45:34.931Z,32.14
2022-08-09T12:46:07.293Z,32.19
2022-08-09T12:47:07.541Z,32.30
2022-08-09T12:48:07.950Z,32.35
2022-08-09T12:49:07.659Z,32.35
2022-08-09T12:50:08.131Z,32.39
2022-08-09T12:51:07.408Z,32.43
2022-08-09T12:52:07.552Z,32.43
2022-08-09T12:53:09.481Z,32.45
2022-08-09T12:54:07.901Z,32.52
2022-08-09T12:56:12.411Z,32.54
2022-08-09T12:56:14.374Z,32.56
2022-08-09T12:57:07.436Z,32.53
2022-08-09T12:58:08.141Z,32.56
2022-08-09T12:59:07.449Z,32.61